Aérodrome :







RETROUVEZ-NOUS SUR...

 
LOGIN :

S'inscrire | Disclaimer

   EN    FR    IT 

 









Légende :    VFR   VFR Marginal   IFR   IFR Intensif   IFR Très Intensif
Visi : 
Plafond : 
>= 8 km
>= 3000ft
5 à 8 km
1000 à 3000 ft
1500m à 5 km
500 à 1000 ft
800 à 1500m
200 à 500 ft
< 800m
< 200 ft
Symboles :   Orages  Brouillard  Fortes neiges  Fortes précipitations  Vent > 20 kt






- Altitude de l'aérodrome : 930 ft


KEFK - Newport State

DERNIER METAR :
  • 261735Z AUTO 00000KT 7SM -SN OVC023 01/M02 A3000 RMK AO2 T00061021

METARs EXPIRÉS :
  • 261715Z AUTO 00000KT 5SM -SN OVC023 01/M02 A3001 RMK AO2 T00051024
  • 261656Z AUTO 33003KT 7SM OVC023 01/M02 A3001 RMK AO2 T00061024
  • 261635Z AUTO 34003KT 10SM BKN025 OVC031 00/M02 A3001 RMK AO2 T00041025
  • 261616Z AUTO 35003KT 10SM OVC031 00/M03 A3002 RMK AO2 T00031028
  • 261555Z AUTO 36004KT 10SM OVC033 00/M03 A3001 RMK AO2 T00011028
  • 261536Z AUTO 35005KT 10SM OVC033 00/M03 A3002 RMK AO2 T00001030
  • 261515Z AUTO 35004KT 10SM SCT035 SCT041 OVC048 00/M03 A3002 RMK AO2 T00001031
  • 261455Z AUTO 36004KT 7SM -SN SCT032 SCT040 OVC050 00/M03 A3002 RMK AO2 T10031033

TAF N/A



MET'MAP, la Météo Aéronautique d'un coup d'oeil ! - Copyright ORBIFLY Décembre 2007 - Disclaimer

ORBIFLY MET'MAP TEAM :

Programmation & Développement : Alexandra Zaïnal
Sur une idée originale de : Baudouin d'Aumeries
Assistance à la programmation : Marc-Olivier Méhu
Soutien technique & logistique : Manuel Goepfert

Contact : metmap@orbifly.com




SOURCES & CREDITS :

   NOAA